createdAt,value
2018-07-12T00:04:00.081Z,3.87
2018-07-12T00:09:03.492Z,3.80
2018-07-12T00:14:06.794Z,3.67
2018-07-12T00:19:10.155Z,3.65
2018-07-12T00:24:13.605Z,4.12
2018-07-12T00:29:16.915Z,4.53
2018-07-12T00:34:20.326Z,4.10
2018-07-12T00:39:23.684Z,3.50
2018-07-12T00:44:27.071Z,4.10
2018-07-12T00:49:30.464Z,3.85
2018-07-12T00:54:34.039Z,3.77
2018-07-12T00:59:37.340Z,3.83
2018-07-12T01:04:40.756Z,3.80
2018-07-12T01:09:44.186Z,3.92
2018-07-12T01:14:47.728Z,4.15
2018-07-12T01:19:50.920Z,4.55
2018-07-12T01:24:54.256Z,4.15
2018-07-12T01:29:57.620Z,4.15
2018-07-12T01:35:01.002Z,4.15
2018-07-12T01:40:04.326Z,4.10
2018-07-12T01:45:07.570Z,4.28
2018-07-12T01:50:10.972Z,4.80
2018-07-12T01:55:14.266Z,4.37
2018-07-12T02:00:17.600Z,4.40
2018-07-12T02:05:21.072Z,4.50
2018-07-12T02:10:24.368Z,3.80
2018-07-12T02:15:27.734Z,4.40
2018-07-12T02:20:31.015Z,4.15
2018-07-12T02:25:34.349Z,4.65
2018-07-12T02:30:37.598Z,4.58
2018-07-12T02:35:41.010Z,4.30
2018-07-12T02:40:44.421Z,4.70
2018-07-12T02:45:47.743Z,5.70
2018-07-12T02:50:51.137Z,4.70
2018-07-12T02:55:54.590Z,4.28
2018-07-12T03:00:57.756Z,4.17
2018-07-12T03:06:02.007Z,4.53
2018-07-12T03:11:05.343Z,4.42
2018-07-12T03:16:08.575Z,4.60
2018-07-12T03:21:12.009Z,4.40
2018-07-12T03:26:15.417Z,4.35
2018-07-12T03:31:18.642Z,4.17
2018-07-12T03:36:21.838Z,4.33
2018-07-12T03:41:25.168Z,4.28
2018-07-12T03:46:29.262Z,4.58
2018-07-12T03:51:33.285Z,4.85
2018-07-12T03:56:36.498Z,4.30
2018-07-12T04:01:39.949Z,5.30
2018-07-12T04:06:43.207Z,4.58
2018-07-12T04:11:46.529Z,4.45
2018-07-12T04:16:49.763Z,4.62
2018-07-12T04:21:53.130Z,4.53
2018-07-12T04:26:56.555Z,4.42
2018-07-12T04:31:59.884Z,4.10
2018-07-12T04:37:03.296Z,4.62
2018-07-12T04:42:06.734Z,4.40
2018-07-12T04:47:10.284Z,4.60
2018-07-12T04:52:13.870Z,4.72
2018-07-12T04:57:17.247Z,4.42
2018-07-12T05:02:20.553Z,4.08
2018-07-12T05:07:23.968Z,3.52
2018-07-12T05:12:28.402Z,4.17
2018-07-12T05:17:31.871Z,3.52
2018-07-12T05:22:35.385Z,3.95
2018-07-12T05:27:38.613Z,3.72
2018-07-12T05:32:42.818Z,4.00
2018-07-12T05:37:47.774Z,4.50
2018-07-12T05:42:52.620Z,4.33
2018-07-12T05:47:57.484Z,4.78
2018-07-12T05:53:02.434Z,4.28
2018-07-12T05:58:07.693Z,4.40
2018-07-12T06:03:12.898Z,4.00
2018-07-12T06:08:18.082Z,3.90
2018-07-12T06:13:22.956Z,3.80
2018-07-12T06:18:27.857Z,3.62
2018-07-12T06:23:32.627Z,3.60
2018-07-12T06:28:37.662Z,4.80
2018-07-12T06:33:42.170Z,3.87
2018-07-12T06:38:47.477Z,3.95
2018-07-12T06:43:52.259Z,4.00
2018-07-12T06:48:57.078Z,3.58
2018-07-12T06:54:01.982Z,4.08
2018-07-12T06:59:06.697Z,3.80
2018-07-12T07:04:11.460Z,4.08
2018-07-12T07:09:16.600Z,3.90
2018-07-12T07:14:21.530Z,3.50
2018-07-12T07:19:26.509Z,4.47
2018-07-12T07:24:31.320Z,4.25
2018-07-12T07:29:36.352Z,4.37
2018-07-12T07:34:41.315Z,4.28
2018-07-12T07:39:46.241Z,4.15
2018-07-12T07:44:51.010Z,4.83
2018-07-12T07:49:56.177Z,4.62
2018-07-12T07:55:01.502Z,4.80
2018-07-12T08:00:06.262Z,4.40
2018-07-12T08:05:11.302Z,4.67
2018-07-12T08:10:16.152Z,4.78
2018-07-12T08:15:20.473Z,4.97
2018-07-12T08:20:25.580Z,5.05
2018-07-12T08:25:30.948Z,4.85
2018-07-12T08:30:36.210Z,4.58
2018-07-12T08:35:40.987Z,4.25
2018-07-12T08:40:45.848Z,5.10
2018-07-12T08:45:51.842Z,4.83
2018-07-12T08:50:56.367Z,4.75
2018-07-12T08:56:02.532Z,3.83
2018-07-12T09:01:07.143Z,3.77
2018-07-12T09:06:11.800Z,3.60
2018-07-12T09:11:16.589Z,3.52
2018-07-12T09:16:21.286Z,3.85
2018-07-12T09:21:26.003Z,3.40
2018-07-12T09:26:30.644Z,3.50
2018-07-12T09:31:35.281Z,3.65
2018-07-12T09:36:40.743Z,3.83
2018-07-12T09:41:45.958Z,2.47
2018-07-12T09:46:50.942Z,2.77
2018-07-12T09:51:55.763Z,2.72
2018-07-12T09:58:15.372Z,2.65
2018-07-12T10:03:21.629Z,2.27
2018-07-12T10:08:32.024Z,2.35
2018-07-12T10:13:42.093Z,2.42
2018-07-12T10:18:47.447Z,1.95
2018-07-12T10:23:52.222Z,2.60
2018-07-12T10:28:57.157Z,2.30
2018-07-12T10:34:01.399Z,2.05
2018-07-12T10:39:08.260Z,1.90
2018-07-12T10:44:13.089Z,1.82
2018-07-12T10:49:18.003Z,2.15
2018-07-12T10:54:22.805Z,1.90
2018-07-12T10:59:27.561Z,2.00
2018-07-12T11:04:32.518Z,1.77
2018-07-12T11:09:37.404Z,1.95
2018-07-12T11:14:44.135Z,2.17
2018-07-12T11:19:48.735Z,3.50
2018-07-12T11:24:53.541Z,2.87
2018-07-12T11:30:00.244Z,2.77
2018-07-12T11:35:06.139Z,3.27
2018-07-12T11:40:10.884Z,2.87
2018-07-12T11:45:15.877Z,2.80
2018-07-12T11:50:20.315Z,2.83
2018-07-12T11:55:25.497Z,3.00
2018-07-12T12:00:30.369Z,3.02
2018-07-12T12:05:35.089Z,2.62
2018-07-12T12:10:39.642Z,2.75
2018-07-12T12:15:44.687Z,2.58
2018-07-12T12:20:49.426Z,2.62
2018-07-12T12:25:54.051Z,2.47
2018-07-12T12:30:58.909Z,2.17
2018-07-12T12:36:03.864Z,2.00
2018-07-12T12:41:08.657Z,2.33
2018-07-12T12:46:13.336Z,2.10
2018-07-12T12:51:17.635Z,1.82
2018-07-12T12:56:22.558Z,1.65
2018-07-12T13:01:27.280Z,2.00
2018-07-12T13:06:31.992Z,1.92
2018-07-12T13:11:36.840Z,1.85
2018-07-12T13:16:41.491Z,1.52
2018-07-12T13:21:46.202Z,1.92
2018-07-12T13:26:51.013Z,1.80
2018-07-12T13:31:55.722Z,1.67
2018-07-12T13:36:59.765Z,1.57
2018-07-12T13:42:04.673Z,1.98
2018-07-12T13:47:09.532Z,1.77
2018-07-12T13:52:15.032Z,2.00
2018-07-12T13:57:19.615Z,2.22
2018-07-12T14:02:24.577Z,2.15
2018-07-12T14:07:29.431Z,2.10
2018-07-12T14:12:34.646Z,1.70
2018-07-12T14:17:39.874Z,2.20
2018-07-12T14:22:44.734Z,2.10
2018-07-12T14:27:49.370Z,2.37
2018-07-12T14:32:55.044Z,2.85
2018-07-12T14:37:59.714Z,2.30
2018-07-12T14:43:04.644Z,2.35
2018-07-12T14:48:09.926Z,2.20
2018-07-12T14:53:14.607Z,2.00
2018-07-12T14:58:19.415Z,2.52
2018-07-12T15:03:24.464Z,2.27
2018-07-12T15:08:29.284Z,2.02
2018-07-12T15:13:34.100Z,2.25
2018-07-12T15:18:38.847Z,2.20
2018-07-12T15:23:43.814Z,2.10
2018-07-12T15:28:48.663Z,2.22
2018-07-12T15:33:53.306Z,2.22
2018-07-12T15:38:58.019Z,1.90
2018-07-12T15:44:03.199Z,2.27
2018-07-12T15:49:08.114Z,2.05
2018-07-12T15:54:13.147Z,2.12
2018-07-12T15:59:17.892Z,2.35
2018-07-12T16:04:22.598Z,2.37
2018-07-12T16:09:27.323Z,2.27
2018-07-12T16:14:32.488Z,2.55
2018-07-12T16:19:37.348Z,2.40
2018-07-12T16:24:42.032Z,2.00
2018-07-12T16:29:46.699Z,2.10
2018-07-12T16:34:51.659Z,2.22
2018-07-12T16:39:56.424Z,2.22
2018-07-12T16:45:01.254Z,2.33
2018-07-12T16:50:06.095Z,2.35
2018-07-12T16:55:11.016Z,2.60
2018-07-12T17:00:19.235Z,2.47
2018-07-12T17:05:24.494Z,2.35
2018-07-12T17:10:29.554Z,2.50
2018-07-12T17:15:35.115Z,2.33
2018-07-12T17:20:39.884Z,2.20
2018-07-12T17:25:44.782Z,2.55
2018-07-12T17:30:49.717Z,5.00
2018-07-12T17:35:54.639Z,35.80
2018-07-12T17:40:59.295Z,34.80
2018-07-12T17:46:04.211Z,14.75
2018-07-12T17:51:08.427Z,3.62
2018-07-12T17:56:12.577Z,3.55
2018-07-12T18:01:17.605Z,3.02
2018-07-12T18:06:22.562Z,2.60
2018-07-12T18:11:30.057Z,2.50
2018-07-12T18:16:35.115Z,2.92
2018-07-12T18:21:40.471Z,2.60
2018-07-12T18:26:45.717Z,2.90
2018-07-12T18:31:51.045Z,3.20
2018-07-12T18:36:56.205Z,2.98
2018-07-12T18:42:01.086Z,2.72
2018-07-12T18:47:06.453Z,2.98
2018-07-12T18:52:12.035Z,2.72
2018-07-12T18:57:17.779Z,3.02
2018-07-12T19:02:22.609Z,2.85
2018-07-12T19:07:27.478Z,2.85
2018-07-12T19:12:33.122Z,6.85
2018-07-12T19:17:37.960Z,3.12
2018-07-12T19:22:42.842Z,2.87
2018-07-12T19:27:47.727Z,2.35
2018-07-12T19:32:52.591Z,3.10
2018-07-12T19:37:56.949Z,2.58
2018-07-12T19:43:02.160Z,2.77
2018-07-12T19:48:07.439Z,2.55
2018-07-12T19:53:12.308Z,2.42
2018-07-12T19:58:17.211Z,2.30
2018-07-12T20:03:21.444Z,2.20
2018-07-12T20:08:26.783Z,2.52
2018-07-12T20:13:31.496Z,2.50
2018-07-12T20:18:36.051Z,2.83
2018-07-12T20:23:40.619Z,2.20
2018-07-12T20:28:45.528Z,2.50
2018-07-12T20:33:50.658Z,2.70
2018-07-12T20:38:55.445Z,2.87
2018-07-12T20:44:00.260Z,2.35
2018-07-12T20:49:06.235Z,2.55
2018-07-12T20:54:11.156Z,2.25
2018-07-12T20:59:16.508Z,2.90
2018-07-12T21:04:22.302Z,2.58
2018-07-12T21:09:27.214Z,2.20
2018-07-12T21:14:32.285Z,2.27
2018-07-12T21:19:37.019Z,2.27
2018-07-12T21:24:42.175Z,2.65
2018-07-12T21:29:46.982Z,2.40
2018-07-12T21:34:51.717Z,2.40
2018-07-12T21:39:58.085Z,2.17
2018-07-12T21:45:02.703Z,2.40
2018-07-12T21:50:07.643Z,2.47
2018-07-12T21:55:12.641Z,2.37
2018-07-12T22:00:17.353Z,2.45
2018-07-12T22:05:22.066Z,2.30
2018-07-12T22:10:28.090Z,2.60
2018-07-12T22:15:33.366Z,2.50
2018-07-12T22:20:38.110Z,2.75
2018-07-12T22:25:42.960Z,2.50
2018-07-12T22:30:47.927Z,2.42
2018-07-12T22:35:54.126Z,2.60
2018-07-12T22:40:59.094Z,2.52
2018-07-12T22:46:03.848Z,2.83
2018-07-12T22:51:08.652Z,2.60
2018-07-12T22:56:13.310Z,3.02
2018-07-12T23:01:18.108Z,2.90
2018-07-12T23:06:22.951Z,3.10
2018-07-12T23:11:28.923Z,2.83
2018-07-12T23:16:33.799Z,3.20
2018-07-12T23:21:38.589Z,3.37
2018-07-12T23:26:43.349Z,3.08
2018-07-12T23:31:47.691Z,3.00
2018-07-12T23:36:52.346Z,2.67
2018-07-12T23:41:57.114Z,3.33
2018-07-12T23:47:02.457Z,3.08
2018-07-12T23:52:07.379Z,3.30
2018-07-12T23:57:11.958Z,3.12
